sensor_id;sensor_type;location;lat;lon;timestamp;P1;durP1;ratioP1;P2;durP2;ratioP2
20884;SDS011;10602;48.000;9.654;2023-03-14T00:01:13;2.97;;;1.20;;
20884;SDS011;10602;48.000;9.654;2023-03-14T00:03:42;2.33;;;1.17;;
20884;SDS011;10602;48.000;9.654;2023-03-14T00:06:10;0.70;;;0.70;;
20884;SDS011;10602;48.000;9.654;2023-03-14T00:08:39;1.27;;;0.83;;
20884;SDS011;10602;48.000;9.654;2023-03-14T00:11:13;1.17;;;0.80;;
20884;SDS011;10602;48.000;9.654;2023-03-14T00:13:38;1.90;;;0.80;;
20884;SDS011;10602;48.000;9.654;2023-03-14T00:16:06;1.10;;;0.90;;
20884;SDS011;10602;48.000;9.654;2023-03-14T00:18:35;1.07;;;0.97;;
20884;SDS011;10602;48.000;9.654;2023-03-14T00:21:04;1.27;;;0.70;;
20884;SDS011;10602;48.000;9.654;2023-03-14T00:23:33;0.77;;;0.77;;
20884;SDS011;10602;48.000;9.654;2023-03-14T00:26:04;0.50;;;0.40;;
20884;SDS011;10602;48.000;9.654;2023-03-14T00:28:32;0.50;;;0.50;;
20884;SDS011;10602;48.000;9.654;2023-03-14T00:31:03;0.57;;;0.57;;
20884;SDS011;10602;48.000;9.654;2023-03-14T00:33:33;0.40;;;0.40;;
20884;SDS011;10602;48.000;9.654;2023-03-14T00:36:02;0.67;;;0.67;;
20884;SDS011;10602;48.000;9.654;2023-03-14T00:38:32;0.50;;;0.47;;
20884;SDS011;10602;48.000;9.654;2023-03-14T00:41:03;0.50;;;0.50;;
20884;SDS011;10602;48.000;9.654;2023-03-14T00:43:45;0.93;;;0.60;;
20884;SDS011;10602;48.000;9.654;2023-03-14T00:46:13;0.60;;;0.60;;
20884;SDS011;10602;48.000;9.654;2023-03-14T00:48:40;0.60;;;0.60;;
20884;SDS011;10602;48.000;9.654;2023-03-14T00:51:08;0.67;;;0.60;;
20884;SDS011;10602;48.000;9.654;2023-03-14T00:53:37;0.53;;;0.53;;
20884;SDS011;10602;48.000;9.654;2023-03-14T00:56:07;0.50;;;0.50;;
20884;SDS011;10602;48.000;9.654;2023-03-14T00:58:36;0.60;;;0.60;;
20884;SDS011;10602;48.000;9.654;2023-03-14T01:01:17;1.17;;;0.60;;
20884;SDS011;10602;48.000;9.654;2023-03-14T01:03:45;0.87;;;0.87;;
20884;SDS011;10602;48.000;9.654;2023-03-14T01:06:14;0.67;;;0.67;;
20884;SDS011;10602;48.000;9.654;2023-03-14T01:08:43;0.70;;;0.70;;
20884;SDS011;10602;48.000;9.654;2023-03-14T01:11:12;0.60;;;0.60;;
20884;SDS011;10602;48.000;9.654;2023-03-14T01:13:42;0.50;;;0.50;;
20884;SDS011;10602;48.000;9.654;2023-03-14T01:16:10;0.90;;;0.90;;
20884;SDS011;10602;48.000;9.654;2023-03-14T01:18:39;1.80;;;0.83;;
20884;SDS011;10602;48.000;9.654;2023-03-14T01:21:10;1.90;;;1.60;;
20884;SDS011;10602;48.000;9.654;2023-03-14T01:23:43;0.70;;;0.70;;
20884;SDS011;10602;48.000;9.654;2023-03-14T01:26:11;0.70;;;0.70;;
20884;SDS011;10602;48.000;9.654;2023-03-14T01:28:40;0.60;;;0.60;;
20884;SDS011;10602;48.000;9.654;2023-03-14T01:31:09;0.73;;;0.73;;
20884;SDS011;10602;48.000;9.654;2023-03-14T01:33:36;0.80;;;0.80;;
20884;SDS011;10602;48.000;9.654;2023-03-14T01:36:05;0.60;;;0.60;;
20884;SDS011;10602;48.000;9.654;2023-03-14T01:38:33;0.60;;;0.60;;
20884;SDS011;10602;48.000;9.654;2023-03-14T01:41:03;1.20;;;0.70;;
20884;SDS011;10602;48.000;9.654;2023-03-14T01:43:31;0.70;;;0.70;;
20884;SDS011;10602;48.000;9.654;2023-03-14T01:48:35;0.77;;;0.77;;
20884;SDS011;10602;48.000;9.654;2023-03-14T01:51:16;0.70;;;0.70;;
20884;SDS011;10602;48.000;9.654;2023-03-14T01:53:44;0.80;;;0.80;;
20884;SDS011;10602;48.000;9.654;2023-03-14T01:56:14;0.70;;;0.70;;
20884;SDS011;10602;48.000;9.654;2023-03-14T01:58:45;0.70;;;0.70;;
20884;SDS011;10602;48.000;9.654;2023-03-14T02:01:16;0.80;;;0.60;;
20884;SDS011;10602;48.000;9.654;2023-03-14T02:03:53;0.80;;;0.80;;
20884;SDS011;10602;48.000;9.654;2023-03-14T02:06:24;0.80;;;0.80;;
20884;SDS011;10602;48.000;9.654;2023-03-14T02:08:53;0.60;;;0.60;;
20884;SDS011;10602;48.000;9.654;2023-03-14T02:11:21;1.13;;;0.80;;
20884;SDS011;10602;48.000;9.654;2023-03-14T02:13:52;0.70;;;0.70;;
20884;SDS011;10602;48.000;9.654;2023-03-14T02:16:20;0.87;;;0.60;;
20884;SDS011;10602;48.000;9.654;2023-03-14T02:18:47;0.73;;;0.70;;
20884;SDS011;10602;48.000;9.654;2023-03-14T02:21:18;0.63;;;0.63;;
20884;SDS011;10602;48.000;9.654;2023-03-14T02:26:40;1.07;;;0.80;;
20884;SDS011;10602;48.000;9.654;2023-03-14T02:29:09;0.70;;;0.70;;
20884;SDS011;10602;48.000;9.654;2023-03-14T02:31:37;0.80;;;0.80;;
20884;SDS011;10602;48.000;9.654;2023-03-14T02:34:05;0.80;;;0.80;;
20884;SDS011;10602;48.000;9.654;2023-03-14T02:36:33;1.13;;;0.70;;
20884;SDS011;10602;48.000;9.654;2023-03-14T02:39:05;0.50;;;0.50;;
20884;SDS011;10602;48.000;9.654;2023-03-14T02:41:31;0.63;;;0.63;;
20884;SDS011;10602;48.000;9.654;2023-03-14T02:43:59;0.80;;;0.80;;
20884;SDS011;10602;48.000;9.654;2023-03-14T02:46:27;0.67;;;0.67;;
20884;SDS011;10602;48.000;9.654;2023-03-14T02:48:59;0.70;;;0.70;;
20884;SDS011;10602;48.000;9.654;2023-03-14T02:51:31;0.57;;;0.57;;
20884;SDS011;10602;48.000;9.654;2023-03-14T02:53:59;0.70;;;0.70;;
20884;SDS011;10602;48.000;9.654;2023-03-14T02:56:27;0.70;;;0.70;;
20884;SDS011;10602;48.000;9.654;2023-03-14T02:58:54;0.60;;;0.60;;
20884;SDS011;10602;48.000;9.654;2023-03-14T03:01:23;1.70;;;0.80;;
20884;SDS011;10602;48.000;9.654;2023-03-14T03:03:51;0.97;;;0.53;;
20884;SDS011;10602;48.000;9.654;2023-03-14T03:06:19;0.87;;;0.53;;
20884;SDS011;10602;48.000;9.654;2023-03-14T03:08:47;0.77;;;0.77;;
20884;SDS011;10602;48.000;9.654;2023-03-14T03:11:14;0.87;;;0.80;;
20884;SDS011;10602;48.000;9.654;2023-03-14T03:13:42;0.70;;;0.63;;
20884;SDS011;10602;48.000;9.654;2023-03-14T03:16:10;0.60;;;0.60;;
20884;SDS011;10602;48.000;9.654;2023-03-14T03:18:39;0.70;;;0.70;;
20884;SDS011;10602;48.000;9.654;2023-03-14T03:21:06;0.97;;;0.70;;
20884;SDS011;10602;48.000;9.654;2023-03-14T03:23:35;0.60;;;0.60;;
20884;SDS011;10602;48.000;9.654;2023-03-14T03:26:02;1.43;;;0.70;;
20884;SDS011;10602;48.000;9.654;2023-03-14T03:28:30;0.70;;;0.70;;
20884;SDS011;10602;48.000;9.654;2023-03-14T03:30:58;0.60;;;0.60;;
20884;SDS011;10602;48.000;9.654;2023-03-14T03:33:25;0.70;;;0.70;;
20884;SDS011;10602;48.000;9.654;2023-03-14T03:35:56;0.80;;;0.80;;
20884;SDS011;10602;48.000;9.654;2023-03-14T03:38:25;0.60;;;0.60;;
20884;SDS011;10602;48.000;9.654;2023-03-14T03:40:52;0.60;;;0.60;;
20884;SDS011;10602;48.000;9.654;2023-03-14T03:43:22;0.67;;;0.60;;
20884;SDS011;10602;48.000;9.654;2023-03-14T03:45:49;0.57;;;0.57;;
20884;SDS011;10602;48.000;9.654;2023-03-14T03:48:17;0.80;;;0.77;;
20884;SDS011;10602;48.000;9.654;2023-03-14T03:50:45;1.60;;;0.77;;
20884;SDS011;10602;48.000;9.654;2023-03-14T03:53:13;0.60;;;0.60;;
20884;SDS011;10602;48.000;9.654;2023-03-14T04:11:15;0.57;;;0.57;;
20884;SDS011;10602;48.000;9.654;2023-03-14T04:13:44;0.70;;;0.70;;
20884;SDS011;10602;48.000;9.654;2023-03-14T04:16:17;0.70;;;0.70;;
20884;SDS011;10602;48.000;9.654;2023-03-14T04:18:44;0.50;;;0.50;;
20884;SDS011;10602;48.000;9.654;2023-03-14T04:21:13;0.60;;;0.60;;
20884;SDS011;10602;48.000;9.654;2023-03-14T04:23:41;0.73;;;0.73;;
20884;SDS011;10602;48.000;9.654;2023-03-14T04:26:09;0.70;;;0.70;;
20884;SDS011;10602;48.000;9.654;2023-03-14T04:28:36;0.63;;;0.63;;
20884;SDS011;10602;48.000;9.654;2023-03-14T04:31:09;0.60;;;0.60;;
20884;SDS011;10602;48.000;9.654;2023-03-14T04:33:43;0.70;;;0.70;;
20884;SDS011;10602;48.000;9.654;2023-03-14T04:36:13;0.80;;;0.80;;
20884;SDS011;10602;48.000;9.654;2023-03-14T04:38:44;0.93;;;0.90;;
20884;SDS011;10602;48.000;9.654;2023-03-14T04:41:12;1.60;;;1.17;;
20884;SDS011;10602;48.000;9.654;2023-03-14T04:43:39;0.60;;;0.60;;
20884;SDS011;10602;48.000;9.654;2023-03-14T04:46:07;0.60;;;0.60;;
20884;SDS011;10602;48.000;9.654;2023-03-14T04:48:36;0.60;;;0.60;;
20884;SDS011;10602;48.000;9.654;2023-03-14T04:51:04;0.50;;;0.50;;
20884;SDS011;10602;48.000;9.654;2023-03-14T04:53:31;0.80;;;0.77;;
20884;SDS011;10602;48.000;9.654;2023-03-14T04:56:01;0.63;;;0.63;;
20884;SDS011;10602;48.000;9.654;2023-03-14T04:58:28;1.10;;;1.00;;
20884;SDS011;10602;48.000;9.654;2023-03-14T05:01:01;1.27;;;1.17;;
20884;SDS011;10602;48.000;9.654;2023-03-14T05:03:33;2.50;;;1.70;;
20884;SDS011;10602;48.000;9.654;2023-03-14T05:06:01;1.20;;;1.00;;
20884;SDS011;10602;48.000;9.654;2023-03-14T05:08:29;1.00;;;0.90;;
20884;SDS011;10602;48.000;9.654;2023-03-14T05:10:57;0.90;;;0.90;;
20884;SDS011;10602;48.000;9.654;2023-03-14T05:13:25;0.83;;;0.70;;
20884;SDS011;10602;48.000;9.654;2023-03-14T05:15:52;0.80;;;0.80;;
20884;SDS011;10602;48.000;9.654;2023-03-14T05:18:21;1.00;;;1.00;;
20884;SDS011;10602;48.000;9.654;2023-03-14T05:20:53;0.57;;;0.57;;
20884;SDS011;10602;48.000;9.654;2023-03-14T05:23:21;0.60;;;0.60;;
20884;SDS011;10602;48.000;9.654;2023-03-14T05:25:48;0.60;;;0.60;;
20884;SDS011;10602;48.000;9.654;2023-03-14T05:28:16;0.80;;;0.80;;
20884;SDS011;10602;48.000;9.654;2023-03-14T05:30:45;1.33;;;0.80;;
20884;SDS011;10602;48.000;9.654;2023-03-14T05:33:12;0.73;;;0.73;;
20884;SDS011;10602;48.000;9.654;2023-03-14T09:42:03;1.43;;;0.90;;
20884;SDS011;10602;48.000;9.654;2023-03-14T09:44:35;0.60;;;0.60;;
20884;SDS011;10602;48.000;9.654;2023-03-14T09:47:05;0.97;;;0.90;;
20884;SDS011;10602;48.000;9.654;2023-03-14T09:49:34;0.60;;;0.60;;
20884;SDS011;10602;48.000;9.654;2023-03-14T09:52:10;0.90;;;0.80;;
20884;SDS011;10602;48.000;9.654;2023-03-14T09:54:36;0.80;;;0.80;;
20884;SDS011;10602;48.000;9.654;2023-03-14T09:57:06;0.80;;;0.80;;
20884;SDS011;10602;48.000;9.654;2023-03-14T09:59:36;0.97;;;0.97;;
20884;SDS011;10602;48.000;9.654;2023-03-14T10:02:13;0.60;;;0.60;;
20884;SDS011;10602;48.000;9.654;2023-03-14T10:04:45;0.80;;;0.80;;
20884;SDS011;10602;48.000;9.654;2023-03-14T10:07:25;0.60;;;0.60;;
20884;SDS011;10602;48.000;9.654;2023-03-14T10:09:55;0.63;;;0.63;;
20884;SDS011;10602;48.000;9.654;2023-03-14T10:12:33;0.80;;;0.80;;
20884;SDS011;10602;48.000;9.654;2023-03-14T10:15:10;0.60;;;0.60;;
20884;SDS011;10602;48.000;9.654;2023-03-14T10:17:43;0.70;;;0.70;;
20884;SDS011;10602;48.000;9.654;2023-03-14T10:25:46;0.70;;;0.70;;
20884;SDS011;10602;48.000;9.654;2023-03-14T10:28:25;0.90;;;0.90;;
20884;SDS011;10602;48.000;9.654;2023-03-14T10:30:55;0.87;;;0.87;;
20884;SDS011;10602;48.000;9.654;2023-03-14T10:33:24;1.00;;;0.90;;
20884;SDS011;10602;48.000;9.654;2023-03-14T10:38:44;0.80;;;0.80;;
20884;SDS011;10602;48.000;9.654;2023-03-14T10:41:24;0.73;;;0.73;;
20884;SDS011;10602;48.000;9.654;2023-03-14T10:43:49;0.93;;;0.87;;
20884;SDS011;10602;48.000;9.654;2023-03-14T10:46:18;0.70;;;0.70;;
20884;SDS011;10602;48.000;9.654;2023-03-14T10:48:46;0.70;;;0.70;;
20884;SDS011;10602;48.000;9.654;2023-03-14T10:51:19;0.70;;;0.70;;
20884;SDS011;10602;48.000;9.654;2023-03-14T10:53:50;0.80;;;0.80;;
20884;SDS011;10602;48.000;9.654;2023-03-14T10:56:25;1.53;;;0.70;;
20884;SDS011;10602;48.000;9.654;2023-03-14T10:58:55;0.70;;;0.70;;
20884;SDS011;10602;48.000;9.654;2023-03-14T11:07:12;0.80;;;0.80;;
20884;SDS011;10602;48.000;9.654;2023-03-14T11:09:55;0.90;;;0.90;;
20884;SDS011;10602;48.000;9.654;2023-03-14T11:15:49;0.67;;;0.67;;
20884;SDS011;10602;48.000;9.654;2023-03-14T11:20:50;1.30;;;1.20;;
20884;SDS011;10602;48.000;9.654;2023-03-14T11:23:24;1.07;;;0.97;;
20884;SDS011;10602;48.000;9.654;2023-03-14T11:25:56;2.07;;;1.70;;
20884;SDS011;10602;48.000;9.654;2023-03-14T11:28:37;1.00;;;1.00;;
20884;SDS011;10602;48.000;9.654;2023-03-14T11:31:13;1.33;;;0.87;;
20884;SDS011;10602;48.000;9.654;2023-03-14T11:33:57;0.90;;;0.90;;
20884;SDS011;10602;48.000;9.654;2023-03-14T11:36:51;0.90;;;0.90;;
20884;SDS011;10602;48.000;9.654;2023-03-14T11:39:02;1.30;;;0.80;;
20884;SDS011;10602;48.000;9.654;2023-03-14T11:41:36;0.83;;;0.80;;
20884;SDS011;10602;48.000;9.654;2023-03-14T11:44:22;0.80;;;0.80;;
20884;SDS011;10602;48.000;9.654;2023-03-14T11:46:57;0.93;;;0.93;;
20884;SDS011;10602;48.000;9.654;2023-03-14T11:49:32;1.03;;;0.80;;
20884;SDS011;10602;48.000;9.654;2023-03-14T11:55:04;1.10;;;1.00;;
20884;SDS011;10602;48.000;9.654;2023-03-14T11:57:40;0.80;;;0.80;;
20884;SDS011;10602;48.000;9.654;2023-03-14T12:02:56;0.70;;;0.70;;
20884;SDS011;10602;48.000;9.654;2023-03-14T12:05:41;0.83;;;0.83;;
20884;SDS011;10602;48.000;9.654;2023-03-14T12:11:19;1.33;;;1.07;;
20884;SDS011;10602;48.000;9.654;2023-03-14T12:13:51;0.60;;;0.60;;
20884;SDS011;10602;48.000;9.654;2023-03-14T12:19:14;0.60;;;0.60;;
20884;SDS011;10602;48.000;9.654;2023-03-14T12:21:46;1.23;;;1.13;;
20884;SDS011;10602;48.000;9.654;2023-03-14T12:24:18;0.60;;;0.60;;
20884;SDS011;10602;48.000;9.654;2023-03-14T12:26:54;0.70;;;0.70;;
20884;SDS011;10602;48.000;9.654;2023-03-14T12:29:23;0.70;;;0.70;;
20884;SDS011;10602;48.000;9.654;2023-03-14T12:34:32;0.87;;;0.87;;
20884;SDS011;10602;48.000;9.654;2023-03-14T12:37:01;0.80;;;0.80;;
20884;SDS011;10602;48.000;9.654;2023-03-14T12:39:47;1.10;;;1.00;;
20884;SDS011;10602;48.000;9.654;2023-03-14T12:47:43;0.90;;;0.90;;
20884;SDS011;10602;48.000;9.654;2023-03-14T12:50:34;0.60;;;0.60;;
20884;SDS011;10602;48.000;9.654;2023-03-14T13:01:10;0.70;;;0.70;;
20884;SDS011;10602;48.000;9.654;2023-03-14T13:03:47;0.50;;;0.50;;
20884;SDS011;10602;48.000;9.654;2023-03-14T13:12:03;1.50;;;1.33;;
20884;SDS011;10602;48.000;9.654;2023-03-14T13:14:43;0.93;;;0.83;;
20884;SDS011;10602;48.000;9.654;2023-03-14T13:17:13;0.70;;;0.70;;
20884;SDS011;10602;48.000;9.654;2023-03-14T13:19:42;0.80;;;0.80;;
20884;SDS011;10602;48.000;9.654;2023-03-14T13:22:23;0.90;;;0.90;;
20884;SDS011;10602;48.000;9.654;2023-03-14T13:24:48;1.10;;;0.90;;
20884;SDS011;10602;48.000;9.654;2023-03-14T13:27:21;1.33;;;1.10;;
20884;SDS011;10602;48.000;9.654;2023-03-14T13:29:48;1.30;;;1.20;;
20884;SDS011;10602;48.000;9.654;2023-03-14T13:32:17;1.80;;;1.70;;
20884;SDS011;10602;48.000;9.654;2023-03-14T13:34:49;2.17;;;1.33;;
20884;SDS011;10602;48.000;9.654;2023-03-14T13:37:19;1.03;;;0.93;;
20884;SDS011;10602;48.000;9.654;2023-03-14T13:39:51;1.37;;;1.27;;
20884;SDS011;10602;48.000;9.654;2023-03-14T13:42:21;1.90;;;1.70;;
20884;SDS011;10602;48.000;9.654;2023-03-14T13:44:53;2.93;;;1.63;;
20884;SDS011;10602;48.000;9.654;2023-03-14T13:47:23;2.77;;;1.13;;
20884;SDS011;10602;48.000;9.654;2023-03-14T13:49:52;1.10;;;1.10;;
20884;SDS011;10602;48.000;9.654;2023-03-14T13:55:00;1.07;;;0.80;;
20884;SDS011;10602;48.000;9.654;2023-03-14T13:57:52;2.20;;;1.67;;
20884;SDS011;10602;48.000;9.654;2023-03-14T14:00:24;0.90;;;0.90;;
20884;SDS011;10602;48.000;9.654;2023-03-14T14:02:56;0.77;;;0.77;;
20884;SDS011;10602;48.000;9.654;2023-03-14T14:05:26;4.63;;;1.30;;
20884;SDS011;10602;48.000;9.654;2023-03-14T14:07:55;1.00;;;1.00;;
20884;SDS011;10602;48.000;9.654;2023-03-14T14:10:25;1.20;;;0.90;;
20884;SDS011;10602;48.000;9.654;2023-03-14T14:12:57;1.43;;;0.97;;
20884;SDS011;10602;48.000;9.654;2023-03-14T14:15:25;0.97;;;0.83;;
20884;SDS011;10602;48.000;9.654;2023-03-14T14:17:55;0.90;;;0.90;;
20884;SDS011;10602;48.000;9.654;2023-03-14T14:20:32;2.23;;;1.30;;
20884;SDS011;10602;48.000;9.654;2023-03-14T14:23:05;0.83;;;0.83;;
20884;SDS011;10602;48.000;9.654;2023-03-14T14:25:35;2.27;;;1.27;;
20884;SDS011;10602;48.000;9.654;2023-03-14T14:28:23;1.30;;;1.20;;
20884;SDS011;10602;48.000;9.654;2023-03-14T14:31:06;1.20;;;0.83;;
20884;SDS011;10602;48.000;9.654;2023-03-14T14:33:54;1.37;;;0.90;;
20884;SDS011;10602;48.000;9.654;2023-03-14T14:36:27;1.83;;;1.00;;
20884;SDS011;10602;48.000;9.654;2023-03-14T14:39:04;1.20;;;1.00;;
20884;SDS011;10602;48.000;9.654;2023-03-14T14:41:45;1.20;;;1.10;;
20884;SDS011;10602;48.000;9.654;2023-03-14T14:44:20;1.33;;;1.00;;
20884;SDS011;10602;48.000;9.654;2023-03-14T14:46:46;2.63;;;0.90;;
20884;SDS011;10602;48.000;9.654;2023-03-14T14:49:14;2.43;;;1.20;;
20884;SDS011;10602;48.000;9.654;2023-03-14T14:51:44;0.80;;;0.80;;
20884;SDS011;10602;48.000;9.654;2023-03-14T14:54:17;1.63;;;1.17;;
20884;SDS011;10602;48.000;9.654;2023-03-14T14:56:48;1.30;;;1.20;;
20884;SDS011;10602;48.000;9.654;2023-03-14T14:59:25;2.17;;;1.37;;
20884;SDS011;10602;48.000;9.654;2023-03-14T15:01:50;1.30;;;1.20;;
20884;SDS011;10602;48.000;9.654;2023-03-14T15:04:20;0.93;;;0.93;;
20884;SDS011;10602;48.000;9.654;2023-03-14T15:06:49;1.50;;;1.07;;
20884;SDS011;10602;48.000;9.654;2023-03-14T15:09:18;2.37;;;1.30;;
20884;SDS011;10602;48.000;9.654;2023-03-14T15:11:46;2.53;;;1.50;;
20884;SDS011;10602;48.000;9.654;2023-03-14T15:14:14;2.40;;;1.00;;
20884;SDS011;10602;48.000;9.654;2023-03-14T15:16:42;1.03;;;0.93;;
20884;SDS011;10602;48.000;9.654;2023-03-14T15:19:12;2.53;;;1.40;;
20884;SDS011;10602;48.000;9.654;2023-03-14T15:21:40;1.70;;;1.33;;
20884;SDS011;10602;48.000;9.654;2023-03-14T15:24:08;2.80;;;1.60;;
20884;SDS011;10602;48.000;9.654;2023-03-14T15:26:36;2.27;;;1.20;;
20884;SDS011;10602;48.000;9.654;2023-03-14T15:29:04;1.60;;;1.40;;
20884;SDS011;10602;48.000;9.654;2023-03-14T15:31:34;1.97;;;1.70;;
20884;SDS011;10602;48.000;9.654;2023-03-14T15:34:02;2.07;;;1.57;;
20884;SDS011;10602;48.000;9.654;2023-03-14T15:36:31;1.70;;;1.30;;
20884;SDS011;10602;48.000;9.654;2023-03-14T15:38:59;2.07;;;1.30;;
20884;SDS011;10602;48.000;9.654;2023-03-14T15:41:27;3.07;;;1.60;;
20884;SDS011;10602;48.000;9.654;2023-03-14T15:43:55;2.87;;;1.70;;
20884;SDS011;10602;48.000;9.654;2023-03-14T15:46:23;2.63;;;1.80;;
20884;SDS011;10602;48.000;9.654;2023-03-14T15:48:51;5.33;;;2.50;;
20884;SDS011;10602;48.000;9.654;2023-03-14T15:51:18;9.47;;;3.33;;
20884;SDS011;10602;48.000;9.654;2023-03-14T15:53:46;4.63;;;2.00;;
20884;SDS011;10602;48.000;9.654;2023-03-14T15:56:15;8.60;;;3.10;;
20884;SDS011;10602;48.000;9.654;2023-03-14T15:58:44;4.13;;;2.03;;
20884;SDS011;10602;48.000;9.654;2023-03-14T16:01:14;5.07;;;2.27;;
20884;SDS011;10602;48.000;9.654;2023-03-14T16:03:43;2.77;;;1.13;;
20884;SDS011;10602;48.000;9.654;2023-03-14T16:06:11;2.97;;;1.73;;
20884;SDS011;10602;48.000;9.654;2023-03-14T16:08:39;2.47;;;1.67;;
20884;SDS011;10602;48.000;9.654;2023-03-14T16:11:08;7.10;;;3.50;;
20884;SDS011;10602;48.000;9.654;2023-03-14T16:13:37;4.40;;;1.80;;
20884;SDS011;10602;48.000;9.654;2023-03-14T16:16:05;3.93;;;2.03;;
20884;SDS011;10602;48.000;9.654;2023-03-14T16:18:34;4.47;;;1.80;;
20884;SDS011;10602;48.000;9.654;2023-03-14T16:21:04;6.07;;;2.60;;
20884;SDS011;10602;48.000;9.654;2023-03-14T16:23:34;1.67;;;1.10;;
20884;SDS011;10602;48.000;9.654;2023-03-14T16:26:06;1.37;;;1.27;;
20884;SDS011;10602;48.000;9.654;2023-03-14T16:28:34;4.77;;;2.53;;
20884;SDS011;10602;48.000;9.654;2023-03-14T16:31:03;2.60;;;1.77;;
20884;SDS011;10602;48.000;9.654;2023-03-14T16:33:36;4.87;;;2.53;;
20884;SDS011;10602;48.000;9.654;2023-03-14T16:36:05;4.00;;;1.80;;
20884;SDS011;10602;48.000;9.654;2023-03-14T16:38:34;6.50;;;4.17;;
20884;SDS011;10602;48.000;9.654;2023-03-14T16:41:03;7.53;;;3.93;;
20884;SDS011;10602;48.000;9.654;2023-03-14T16:43:33;3.80;;;2.30;;
20884;SDS011;10602;48.000;9.654;2023-03-14T16:46:04;5.47;;;2.50;;
20884;SDS011;10602;48.000;9.654;2023-03-14T16:48:33;9.23;;;3.97;;
20884;SDS011;10602;48.000;9.654;2023-03-14T16:51:00;8.47;;;4.33;;
20884;SDS011;10602;48.000;9.654;2023-03-14T16:53:28;11.20;;;5.10;;
20884;SDS011;10602;48.000;9.654;2023-03-14T16:55:55;3.23;;;2.30;;
20884;SDS011;10602;48.000;9.654;2023-03-14T16:58:25;3.23;;;2.17;;
20884;SDS011;10602;48.000;9.654;2023-03-14T17:00:53;1.83;;;1.70;;
20884;SDS011;10602;48.000;9.654;2023-03-14T17:03:22;5.27;;;3.43;;
20884;SDS011;10602;48.000;9.654;2023-03-14T17:05:52;2.33;;;2.10;;
20884;SDS011;10602;48.000;9.654;2023-03-14T17:08:19;2.27;;;1.60;;
20884;SDS011;10602;48.000;9.654;2023-03-14T17:10:47;4.20;;;1.70;;
20884;SDS011;10602;48.000;9.654;2023-03-14T17:13:15;2.03;;;1.50;;
20884;SDS011;10602;48.000;9.654;2023-03-14T17:15:44;2.57;;;1.40;;
20884;SDS011;10602;48.000;9.654;2023-03-14T17:18:12;2.87;;;1.40;;
20884;SDS011;10602;48.000;9.654;2023-03-14T17:20:40;2.80;;;1.50;;
20884;SDS011;10602;48.000;9.654;2023-03-14T17:23:07;2.83;;;1.40;;
20884;SDS011;10602;48.000;9.654;2023-03-14T17:25:36;2.53;;;1.50;;
20884;SDS011;10602;48.000;9.654;2023-03-14T17:28:04;4.67;;;2.50;;
20884;SDS011;10602;48.000;9.654;2023-03-14T17:30:33;4.13;;;2.27;;
20884;SDS011;10602;48.000;9.654;2023-03-14T17:33:03;8.53;;;4.77;;
20884;SDS011;10602;48.000;9.654;2023-03-14T17:35:30;9.40;;;4.77;;
20884;SDS011;10602;48.000;9.654;2023-03-14T17:37:58;8.13;;;4.27;;
20884;SDS011;10602;48.000;9.654;2023-03-14T17:40:26;3.73;;;2.53;;
20884;SDS011;10602;48.000;9.654;2023-03-14T17:42:54;3.07;;;2.13;;
20884;SDS011;10602;48.000;9.654;2023-03-14T17:45:21;6.53;;;4.03;;
20884;SDS011;10602;48.000;9.654;2023-03-14T17:47:49;4.43;;;2.80;;
20884;SDS011;10602;48.000;9.654;2023-03-14T17:50:16;3.73;;;2.20;;
20884;SDS011;10602;48.000;9.654;2023-03-14T17:52:45;3.10;;;1.70;;
20884;SDS011;10602;48.000;9.654;2023-03-14T17:55:13;4.03;;;2.13;;
20884;SDS011;10602;48.000;9.654;2023-03-14T17:57:40;4.50;;;1.90;;
20884;SDS011;10602;48.000;9.654;2023-03-14T18:00:09;4.53;;;1.90;;
20884;SDS011;10602;48.000;9.654;2023-03-14T18:02:37;2.80;;;1.70;;
20884;SDS011;10602;48.000;9.654;2023-03-14T18:05:06;3.10;;;2.10;;
20884;SDS011;10602;48.000;9.654;2023-03-14T18:07:34;2.87;;;2.20;;
20884;SDS011;10602;48.000;9.654;2023-03-14T18:10:03;1.73;;;1.63;;
20884;SDS011;10602;48.000;9.654;2023-03-14T18:12:32;2.33;;;1.40;;
20884;SDS011;10602;48.000;9.654;2023-03-14T18:14:59;2.83;;;1.77;;
20884;SDS011;10602;48.000;9.654;2023-03-14T18:17:28;3.33;;;1.70;;
20884;SDS011;10602;48.000;9.654;2023-03-14T18:19:55;3.40;;;1.80;;
20884;SDS011;10602;48.000;9.654;2023-03-14T18:22:23;2.07;;;1.87;;
20884;SDS011;10602;48.000;9.654;2023-03-14T18:24:51;2.40;;;1.70;;
20884;SDS011;10602;48.000;9.654;2023-03-14T18:27:19;3.03;;;2.00;;
20884;SDS011;10602;48.000;9.654;2023-03-14T18:29:46;2.77;;;1.57;;
20884;SDS011;10602;48.000;9.654;2023-03-14T18:32:15;3.87;;;1.80;;
20884;SDS011;10602;48.000;9.654;2023-03-14T18:34:42;3.03;;;1.80;;
20884;SDS011;10602;48.000;9.654;2023-03-14T18:37:10;2.80;;;1.30;;
20884;SDS011;10602;48.000;9.654;2023-03-14T18:39:37;2.93;;;1.37;;
20884;SDS011;10602;48.000;9.654;2023-03-14T18:42:05;2.00;;;1.23;;
20884;SDS011;10602;48.000;9.654;2023-03-14T18:44:33;2.20;;;1.67;;
20884;SDS011;10602;48.000;9.654;2023-03-14T18:47:00;1.70;;;1.50;;
20884;SDS011;10602;48.000;9.654;2023-03-14T18:49:28;2.03;;;1.50;;
20884;SDS011;10602;48.000;9.654;2023-03-14T18:51:57;2.00;;;1.43;;
20884;SDS011;10602;48.000;9.654;2023-03-14T18:54:25;2.03;;;1.83;;
20884;SDS011;10602;48.000;9.654;2023-03-14T18:56:52;2.63;;;1.97;;
20884;SDS011;10602;48.000;9.654;2023-03-14T18:59:20;2.77;;;1.77;;
20884;SDS011;10602;48.000;9.654;2023-03-14T19:01:47;2.83;;;2.00;;
20884;SDS011;10602;48.000;9.654;2023-03-14T19:04:15;2.53;;;1.90;;
20884;SDS011;10602;48.000;9.654;2023-03-14T19:06:43;2.33;;;1.73;;
20884;SDS011;10602;48.000;9.654;2023-03-14T19:09:15;2.70;;;1.73;;
20884;SDS011;10602;48.000;9.654;2023-03-14T19:11:40;1.77;;;1.43;;
20884;SDS011;10602;48.000;9.654;2023-03-14T19:14:08;3.00;;;1.80;;
20884;SDS011;10602;48.000;9.654;2023-03-14T19:16:38;2.40;;;1.40;;
20884;SDS011;10602;48.000;9.654;2023-03-14T19:19:05;5.73;;;2.47;;
20884;SDS011;10602;48.000;9.654;2023-03-14T19:21:33;2.30;;;2.10;;
20884;SDS011;10602;48.000;9.654;2023-03-14T19:24:02;3.17;;;2.33;;
20884;SDS011;10602;48.000;9.654;2023-03-14T19:26:30;2.10;;;1.50;;
20884;SDS011;10602;48.000;9.654;2023-03-14T19:29:00;2.97;;;1.47;;
20884;SDS011;10602;48.000;9.654;2023-03-14T19:31:27;3.53;;;1.97;;
20884;SDS011;10602;48.000;9.654;2023-03-14T19:33:56;3.00;;;2.00;;
20884;SDS011;10602;48.000;9.654;2023-03-14T19:36:29;5.53;;;1.90;;
20884;SDS011;10602;48.000;9.654;2023-03-14T19:38:54;3.70;;;2.73;;
20884;SDS011;10602;48.000;9.654;2023-03-14T19:41:23;2.00;;;1.60;;
20884;SDS011;10602;48.000;9.654;2023-03-14T19:43:51;2.53;;;1.50;;
20884;SDS011;10602;48.000;9.654;2023-03-14T19:46:19;2.90;;;1.63;;
20884;SDS011;10602;48.000;9.654;2023-03-14T19:48:48;3.10;;;1.97;;
20884;SDS011;10602;48.000;9.654;2023-03-14T19:51:19;2.97;;;2.10;;
20884;SDS011;10602;48.000;9.654;2023-03-14T19:53:47;2.97;;;1.53;;
20884;SDS011;10602;48.000;9.654;2023-03-14T19:56:15;3.57;;;1.53;;
20884;SDS011;10602;48.000;9.654;2023-03-14T19:58:45;2.50;;;1.60;;
20884;SDS011;10602;48.000;9.654;2023-03-14T20:01:12;1.70;;;1.40;;
20884;SDS011;10602;48.000;9.654;2023-03-14T20:03:40;2.70;;;1.47;;
20884;SDS011;10602;48.000;9.654;2023-03-14T20:06:08;2.37;;;1.53;;
20884;SDS011;10602;48.000;9.654;2023-03-14T20:08:37;1.67;;;1.20;;
20884;SDS011;10602;48.000;9.654;2023-03-14T20:11:06;3.87;;;1.53;;
20884;SDS011;10602;48.000;9.654;2023-03-14T20:13:34;3.07;;;2.37;;
20884;SDS011;10602;48.000;9.654;2023-03-14T20:16:02;2.47;;;1.47;;
20884;SDS011;10602;48.000;9.654;2023-03-14T20:18:30;1.90;;;1.10;;
20884;SDS011;10602;48.000;9.654;2023-03-14T20:20:58;2.80;;;1.50;;
20884;SDS011;10602;48.000;9.654;2023-03-14T20:23:26;2.80;;;1.70;;
20884;SDS011;10602;48.000;9.654;2023-03-14T20:25:54;1.90;;;1.53;;
20884;SDS011;10602;48.000;9.654;2023-03-14T20:28:22;2.40;;;1.60;;